Jesup, IA (50648)

6:05 PM CST on March 05, 2015 (GMT -0600)
Northridge Addition | Change Station
CLOSE
Current Station
Personal Weather Station
Location: Independence, IA
Elevation: 929 ft
Nearby Weather Stations

Elev 929 ft 42.48 °N, 91.89 °W | Updated 39 seconds ago

Clear
Clear
7.1 °F
Feels Like -1 °F
N
4.5
Wind Variable Wind from NW
Gusts 6.9 mph

Today
High -- | Low -- °F
--% Chance of Precip.
Yesterday
High -- | Low -- °F
Precip. -- in
6:37 AM 6:02 PM
Full, 100% visible
Pressure 30.49 in
Visibility 10.0 miles
Clouds Clear
Windchill -1 °F
Dew Point -12 °F
Humidity 40%
Rainfall in
Snow Depth Not available.
UV 0 out of 12
Pollen .50 out of 12
Air Quality Not available.
Flu Activity Not available.
METAR KOLZ 052355Z AUTO 21005KT 10SM CLR M15/M20 A3049 RMK AO2

More Conditions Fewer Conditions

Pressure 30.49 in
Visibility 10.0 miles
Clouds Clear
Windchill -1 °F
Dew Point -12 °F
Humidity 40%
Rainfall in
Snow Depth Not available.
UV 0 out of 12
Pollen .50 out of 12
Air Quality Not available.
Flu Activity Not available.
METAR KOLZ 052355Z AUTO 21005KT 10SM CLR M15/M20 A3049 RMK AO2

More Conditions Fewer Conditions

10-Day Weather Forecast

Almanac

Astronomy

Mar. 05, 2015 Rise Set
Actual Time
Civil Twilight
Nautical Twilight
Astronomical Twilight
Moon
Length of Visible Light
Length of Day
Tomorrow will be .
, % of the Moon is Illuminated

Today's Extremes

State Highs State Lows

Community

WunderPhotos

Upload Photos

1,803,066 photos uploaded!

WunderBlogs® & News

Nearby

Air Quality

  Air Quality AQ Index Pollutant
Not available.

Snow Depth

Station Depth Elevation

Earthquake Activity

City Distance Mag. Time & Date
Minimum magnitude displayed is 2.5.

Coastal Water Temperatures

Place Temperature

Nearby Weather Stations